Time;durP1;ratioP1;P1;durP2;ratioP2;P2;SDS_P1;SDS_P2;PMS_P1;PMS_P2;Temp;Humidity;BMP_temperature;BMP_pressure;BME280_temperature;BME280_humidity;BME280_pressure;Samples;Min_cycle;Max_cycle;Signal;HPM_P1;HPM_P2
2022/08/01 00:02:20;;;;;;;12.27;11.07;;;18.40;99.90;;;;;;5111867;27;20216;-55
2022/08/01 00:04:47;;;;;;;14.23;11.13;;;18.40;99.90;;;;;;5106409;27;20201;-55
2022/08/01 00:07:14;;;;;;;12.30;11.20;;;18.40;99.90;;;;;;5101572;27;20237;-55
2022/08/01 00:09:41;;;;;;;12.63;11.47;;;18.40;99.90;;;;;;5105386;27;20205;-55
2022/08/01 00:12:08;;;;;;;12.47;11.17;;;18.40;99.90;;;;;;5102136;27;20205;-53
2022/08/01 00:14:36;;;;;;;12.93;11.67;;;18.40;99.90;;;;;;5093247;27;20201;-55
2022/08/01 00:17:04;;;;;;;12.70;11.50;;;18.40;99.90;;;;;;5108881;27;20212;-53
2022/08/01 00:19:31;;;;;;;12.17;10.93;;;18.40;99.90;;;;;;5104354;28;20785;-53
2022/08/01 00:21:58;;;;;;;12.53;11.43;;;18.40;99.90;;;;;;5102700;27;20212;-55
2022/08/01 00:24:25;;;;;;;12.90;11.60;;;18.40;99.90;;;;;;5102283;27;20948;-55
2022/08/01 00:26:52;;;;;;;12.23;11.00;;;18.40;99.90;;;;;;5105184;27;20220;-53
2022/08/01 00:29:19;;;;;;;12.00;10.93;;;18.40;99.90;;;;;;5101578;27;20469;-55
2022/08/01 00:31:47;;;;;;;12.17;10.87;;;18.40;99.90;;;;;;5105538;27;20204;-49
2022/08/01 00:34:14;;;;;;;13.07;11.70;;;18.40;99.90;;;;;;5110054;27;20177;-54
2022/08/01 00:36:41;;;;;;;12.87;11.60;;;18.40;99.90;;;;;;5105609;27;20197;-55
2022/08/01 00:39:08;;;;;;;13.37;11.47;;;18.40;99.90;;;;;;5100998;28;20197;-55
2022/08/01 00:41:35;;;;;;;14.73;11.90;;;18.40;99.90;;;;;;5104690;28;20257;-54
2022/08/01 00:44:04;;;;;;;15.50;11.87;;;18.40;99.90;;;;;;5102350;27;20205;-55
2022/08/01 00:46:31;;;;;;;14.17;12.03;;;18.40;99.90;;;;;;5092476;27;20205;-54
2022/08/01 00:49:00;;;;;;;12.43;11.00;;;18.40;99.90;;;;;;5107382;27;20240;-55
2022/08/01 00:51:27;;;;;;;12.60;11.10;;;18.30;99.90;;;;;;5102930;28;20189;-51
2022/08/01 00:53:54;;;;;;;12.40;11.20;;;18.30;99.90;;;;;;5104111;27;20194;-55
2022/08/01 00:56:24;;;;;;;14.00;11.27;;;18.30;99.90;;;;;;5101517;28;20193;-52
2022/08/01 00:58:51;;;;;;;11.87;10.50;;;18.30;99.90;;;;;;5104665;27;20235;-54
2022/08/01 01:01:20;;;;;;;11.77;10.60;;;18.30;99.90;;;;;;5088987;27;20205;-52
2022/08/01 01:03:47;;;;;;;12.47;11.00;;;18.30;99.90;;;;;;5110915;27;20795;-52
2022/08/01 01:06:37;;;;;;;12.73;10.53;;;18.30;99.90;;;;;;5107145;27;20270;-52
2022/08/01 01:09:23;;;;;;;14.20;11.30;;;18.30;99.90;;;;;;5102206;28;20578;-52
2022/08/01 01:12:00;;;;;;;11.80;10.07;;;18.30;99.90;;;;;;5119243;27;20204;-52
2022/08/01 01:14:34;;;;;;;12.67;10.80;;;18.30;99.90;;;;;;5120272;27;20910;-51
2022/08/01 01:17:03;;;;;;;15.93;10.90;;;18.30;99.90;;;;;;5114011;27;20236;-55
2022/08/01 01:19:33;;;;;;;11.80;10.27;;;18.20;99.90;;;;;;5108817;27;20204;-51
2022/08/01 01:22:20;;;;;;;13.03;10.73;;;18.20;99.90;;;;;;5103540;28;20228;-53
2022/08/01 01:25:18;;;;;;;13.17;10.47;;;18.20;99.90;;;;;;5103471;28;20204;-48
2022/08/01 01:27:56;;;;;;;15.10;10.83;;;18.20;99.90;;;;;;5103902;28;20221;-55
2022/08/01 01:30:28;;;;;;;16.23;13.03;;;18.20;99.90;;;;;;5101441;28;20311;-54
2022/08/01 01:32:59;;;;;;;13.23;10.53;;;18.20;99.90;;;;;;5104853;27;20189;-54
2022/08/01 01:35:29;;;;;;;12.93;10.93;;;18.20;99.90;;;;;;5105896;28;20184;-54
2022/08/01 01:38:09;;;;;;;14.53;11.07;;;18.20;99.90;;;;;;5110248;28;20225;-55
2022/08/01 01:40:38;;;;;;;15.10;10.83;;;18.20;99.90;;;;;;5115361;28;20193;-54
2022/08/01 01:43:10;;;;;;;14.47;10.43;;;18.20;99.90;;;;;;5104816;28;20225;-53
2022/08/01 01:45:40;;;;;;;12.47;10.93;;;18.20;99.90;;;;;;5104172;28;20197;-53
2022/08/01 01:48:10;;;;;;;12.27;10.30;;;18.20;99.90;;;;;;5100620;28;20328;-55
2022/08/01 01:50:38;;;;;;;12.23;10.30;;;18.20;99.90;;;;;;5101956;27;20743;-53
2022/08/01 01:53:07;;;;;;;12.00;10.37;;;18.20;99.90;;;;;;5107444;27;20650;-55
2022/08/01 01:55:37;;;;;;;13.53;11.20;;;18.20;99.90;;;;;;5107575;27;20228;-54
2022/08/01 01:58:07;;;;;;;11.87;10.13;;;18.20;99.90;;;;;;5105481;27;20228;-54
2022/08/01 02:00:35;;;;;;;10.17;9.20;;;18.10;99.90;;;;;;5107527;27;20204;-53
2022/08/01 02:03:05;;;;;;;10.50;9.43;;;18.10;99.90;;;;;;5105783;27;20587;-56
2022/08/01 02:05:34;;;;;;;9.73;8.77;;;18.10;99.90;;;;;;5100017;27;20567;-49
2022/08/01 02:08:03;;;;;;;9.53;8.63;;;18.10;99.90;;;;;;5121303;27;20248;-53
2022/08/01 02:10:32;;;;;;;11.17;8.13;;;18.10;99.90;;;;;;5108596;27;20193;-55
2022/08/01 02:13:02;;;;;;;11.17;8.40;;;18.10;99.90;;;;;;5106536;27;20216;-54
2022/08/01 02:15:32;;;;;;;10.77;9.10;;;18.10;99.90;;;;;;5105866;28;20205;-52
2022/08/01 02:18:02;;;;;;;9.83;8.83;;;18.00;99.90;;;;;;5106282;27;20228;-52
2022/08/01 02:20:31;;;;;;;12.10;9.47;;;18.10;99.90;;;;;;5103941;27;20200;-53
2022/08/01 02:23:05;;;;;;;14.30;9.20;;;18.00;99.90;;;;;;5113001;27;20212;-53
2022/08/01 02:25:37;;;;;;;10.37;8.37;;;18.00;99.90;;;;;;5106384;27;20200;-53
2022/08/01 02:28:07;;;;;;;14.33;8.67;;;18.00;99.90;;;;;;5105379;27;20227;-54
2022/08/01 02:30:38;;;;;;;10.47;9.27;;;18.00;99.90;;;;;;5107171;27;20748;-54
2022/08/01 02:33:09;;;;;;;11.90;8.93;;;18.00;99.90;;;;;;5104741;27;20699;-55
2022/08/01 02:35:41;;;;;;;10.67;8.60;;;18.10;99.90;;;;;;5098411;27;20205;-53
2022/08/01 02:38:11;;;;;;;12.20;7.90;;;18.10;99.90;;;;;;5108640;27;20220;-54
2022/08/01 02:40:42;;;;;;;9.50;8.70;;;18.00;99.90;;;;;;5116165;27;20189;-54
2022/08/01 02:43:11;;;;;;;10.23;8.97;;;18.00;99.90;;;;;;5102702;27;20225;-54
2022/08/01 02:45:44;;;;;;;10.30;8.17;;;18.00;99.90;;;;;;5105243;28;20814;-54
2022/08/01 02:48:13;;;;;;;9.50;7.87;;;18.00;99.90;;;;;;5111682;28;20208;-53
2022/08/01 02:50:45;;;;;;;9.70;8.80;;;18.00;99.90;;;;;;5101460;28;20283;-52
2022/08/01 02:53:15;;;;;;;10.70;8.60;;;17.90;99.90;;;;;;5110596;28;20313;-52
2022/08/01 02:55:44;;;;;;;13.43;9.17;;;17.90;99.90;;;;;;5106037;28;20676;-54
2022/08/01 02:58:15;;;;;;;13.10;9.60;;;17.90;99.90;;;;;;5101728;28;20308;-54
2022/08/01 03:00:43;;;;;;;11.07;9.97;;;17.90;99.90;;;;;;5105156;28;20197;-55
2022/08/01 03:03:11;;;;;;;10.73;9.63;;;17.90;99.90;;;;;;5101252;28;20208;-53
2022/08/01 03:05:39;;;;;;;10.53;9.33;;;17.90;99.90;;;;;;5105752;28;20692;-53
2022/08/01 03:08:10;;;;;;;10.53;9.50;;;17.90;99.90;;;;;;5095394;28;20568;-54
2022/08/01 03:10:40;;;;;;;10.70;9.70;;;17.90;99.90;;;;;;5105885;28;20544;-53
2022/08/01 03:13:10;;;;;;;11.43;10.37;;;17.90;99.90;;;;;;5103979;28;20198;-53
2022/08/01 03:15:40;;;;;;;11.03;9.93;;;17.90;99.90;;;;;;5116675;28;20197;-50
2022/08/01 03:18:10;;;;;;;10.03;8.93;;;17.90;99.90;;;;;;5102357;28;20217;-52
2022/08/01 03:20:37;;;;;;;12.50;8.27;;;17.90;99.90;;;;;;5105429;28;20193;-53
2022/08/01 03:23:07;;;;;;;8.20;7.60;;;17.90;99.90;;;;;;5098236;28;20212;-52
2022/08/01 03:25:37;;;;;;;8.20;7.43;;;17.90;99.90;;;;;;5115061;28;20286;-55
2022/08/01 03:28:06;;;;;;;10.27;7.93;;;17.90;99.90;;;;;;5102590;28;20232;-53
2022/08/01 03:30:36;;;;;;;10.73;7.63;;;17.90;99.90;;;;;;5104590;28;20216;-52
2022/08/01 03:33:03;;;;;;;8.80;7.97;;;17.90;99.90;;;;;;5102842;28;20205;-54
2022/08/01 03:35:36;;;;;;;8.83;8.03;;;17.90;99.90;;;;;;5103545;28;20200;-53
2022/08/01 03:38:06;;;;;;;8.40;7.60;;;17.90;99.90;;;;;;5097909;28;20223;-56
2022/08/01 03:40:45;;;;;;;9.90;7.53;;;17.90;99.90;;;;;;5107067;28;20292;-55
2022/08/01 03:43:18;;;;;;;11.17;8.93;;;17.90;99.90;;;;;;5059570;27;1417783;-50
2022/08/01 03:45:50;;;;;;;9.13;8.27;;;17.90;99.90;;;;;;5107965;27;20235;-53
2022/08/01 03:48:19;;;;;;;8.90;8.00;;;17.80;99.90;;;;;;5108081;27;20987;-54
2022/08/01 03:50:50;;;;;;;9.50;7.50;;;17.80;99.90;;;;;;5113331;27;20309;-55
2022/08/01 03:53:23;;;;;;;9.33;7.37;;;17.80;99.90;;;;;;5089851;27;20209;-51
2022/08/01 03:55:53;;;;;;;12.70;7.83;;;17.80;99.90;;;;;;5115175;27;20199;-55
2022/08/01 03:58:20;;;;;;;7.40;6.70;;;17.80;99.90;;;;;;5104280;27;20209;-55
2022/08/01 04:00:48;;;;;;;8.30;7.50;;;17.80;99.90;;;;;;5105734;27;20193;-52
2022/08/01 04:03:15;;;;;;;8.27;7.47;;;17.80;99.90;;;;;;5101138;28;20193;-53
2022/08/01 04:05:43;;;;;;;7.73;7.03;;;17.80;99.90;;;;;;5105689;27;20197;-48
2022/08/01 04:08:10;;;;;;;7.67;6.93;;;17.80;99.90;;;;;;5091181;27;20228;-56
2022/08/01 04:10:37;;;;;;;8.13;7.10;;;17.90;99.90;;;;;;5113900;27;20193;-53
2022/08/01 04:13:06;;;;;;;7.63;6.93;;;17.90;99.90;;;;;;5103625;27;20211;-53
2022/08/01 04:15:33;;;;;;;7.77;7.07;;;17.90;99.90;;;;;;5104477;27;20203;-51
2022/08/01 04:18:00;;;;;;;8.27;5.73;;;17.90;99.90;;;;;;5118291;27;20213;-54
2022/08/01 04:20:27;;;;;;;8.30;7.47;;;17.90;99.90;;;;;;5108638;27;20188;-54
2022/08/01 04:22:54;;;;;;;7.87;6.37;;;17.90;99.90;;;;;;5105257;27;20284;-54
2022/08/01 04:25:27;;;;;;;9.20;6.10;;;17.90;99.90;;;;;;5095032;27;20897;-53
2022/08/01 04:27:55;;;;;;;6.23;5.73;;;17.90;99.90;;;;;;5118251;27;20303;-51
2022/08/01 04:30:28;;;;;;;5.93;5.40;;;17.90;99.90;;;;;;5096572;27;21294;-54
2022/08/01 04:32:58;;;;;;;6.33;5.70;;;17.90;99.90;;;;;;5102291;28;20196;-54
2022/08/01 04:35:25;;;;;;;6.03;5.43;;;17.90;99.90;;;;;;5098533;28;20205;-56
2022/08/01 04:37:54;;;;;;;8.13;5.40;;;17.90;99.90;;;;;;5120560;27;20265;-52
2022/08/01 04:40:22;;;;;;;5.30;4.80;;;17.90;99.90;;;;;;5100150;27;20221;-55
2022/08/01 04:42:50;;;;;;;5.30;4.90;;;17.90;99.90;;;;;;5114390;27;20672;-54
2022/08/01 04:45:17;;;;;;;7.23;4.53;;;17.90;99.90;;;;;;5121135;27;20208;-55
2022/08/01 04:47:47;;;;;;;5.13;4.63;;;17.90;99.90;;;;;;5110849;27;20217;-55
2022/08/01 04:50:14;;;;;;;5.53;4.67;;;17.90;99.90;;;;;;5107868;27;20410;-54
2022/08/01 04:52:42;;;;;;;5.53;5.03;;;17.90;99.90;;;;;;5107951;27;20292;-53
2022/08/01 04:55:10;;;;;;;4.83;4.43;;;17.90;99.90;;;;;;5092591;27;21140;-51
2022/08/01 04:57:40;;;;;;;5.83;4.70;;;17.90;99.90;;;;;;5111311;27;20243;-53
2022/08/01 05:00:08;;;;;;;4.97;4.57;;;17.90;99.90;;;;;;5105913;27;20225;-55
2022/08/01 05:02:35;;;;;;;4.90;4.40;;;17.80;99.90;;;;;;5117044;27;20193;-52
2022/08/01 05:05:05;;;;;;;3.80;3.50;;;17.80;99.90;;;;;;5104873;27;20924;-54
2022/08/01 05:07:32;;;;;;;4.10;3.80;;;17.80;99.90;;;;;;5108042;27;20225;-52
2022/08/01 05:10:01;;;;;;;3.90;3.60;;;17.80;99.90;;;;;;5099172;27;20657;-52
2022/08/01 05:12:27;;;;;;;3.77;3.43;;;17.80;99.90;;;;;;5111532;27;20604;-49
2022/08/01 05:14:54;;;;;;;3.87;2.70;;;17.70;99.90;;;;;;5110264;27;20197;-55
2022/08/01 05:17:21;;;;;;;2.70;2.50;;;17.70;99.90;;;;;;5100706;27;20247;-53
2022/08/01 05:19:49;;;;;;;2.80;2.60;;;17.70;99.90;;;;;;5103464;28;20204;-53
2022/08/01 05:22:17;;;;;;;3.27;2.97;;;17.70;99.90;;;;;;5105058;27;20205;-53
2022/08/01 05:24:44;;;;;;;2.90;2.70;;;17.70;99.90;;;;;;5117099;27;20217;-53
2022/08/01 05:27:10;;;;;;;3.00;2.80;;;17.70;99.90;;;;;;5096404;27;20295;-54
2022/08/01 05:29:38;;;;;;;3.30;3.10;;;17.70;99.90;;;;;;5105529;27;20557;-54
2022/08/01 05:32:05;;;;;;;3.33;3.13;;;17.70;99.90;;;;;;5120613;27;20227;-52
2022/08/01 05:34:32;;;;;;;3.43;3.23;;;17.70;99.90;;;;;;5102363;28;20209;-49
2022/08/01 05:36:59;;;;;;;3.03;2.80;;;17.70;99.90;;;;;;5099174;28;20913;-51
2022/08/01 05:39:27;;;;;;;3.97;3.17;;;17.70;99.90;;;;;;5102100;28;20198;-50
2022/08/01 05:41:54;;;;;;;2.90;2.70;;;17.70;99.90;;;;;;5086565;28;22608;-55
2022/08/01 05:44:22;;;;;;;2.60;2.40;;;17.80;99.90;;;;;;5109817;28;20233;-56
2022/08/01 05:46:48;;;;;;;4.80;2.57;;;17.80;99.90;;;;;;5115567;28;20204;-55
2022/08/01 05:49:15;;;;;;;5.20;2.57;;;17.80;99.90;;;;;;5110191;28;20201;-51
2022/08/01 05:51:42;;;;;;;5.70;2.73;;;17.80;99.90;;;;;;5107637;28;20249;-55
2022/08/01 05:54:09;;;;;;;2.83;2.50;;;17.80;99.90;;;;;;5105402;28;20208;-52
2022/08/01 05:56:37;;;;;;;3.90;2.40;;;17.80;99.90;;;;;;5106617;28;20196;-54
2022/08/01 05:59:03;;;;;;;3.83;2.60;;;17.80;99.90;;;;;;5104677;28;20193;-54
2022/08/01 06:01:30;;;;;;;2.30;2.10;;;17.80;99.90;;;;;;5108841;28;20300;-55
2022/08/01 06:03:57;;;;;;;6.13;2.90;;;17.90;99.90;;;;;;5107319;28;20188;-55
2022/08/01 06:06:24;;;;;;;5.00;2.47;;;17.90;99.90;;;;;;5102620;28;20202;-55
2022/08/01 06:08:51;;;;;;;4.17;2.40;;;17.90;99.90;;;;;;5113673;28;20220;-55
2022/08/01 06:11:18;;;;;;;4.33;2.70;;;17.90;99.90;;;;;;5105552;28;20309;-55
2022/08/01 06:13:46;;;;;;;5.67;2.63;;;17.90;99.90;;;;;;5096126;28;20207;-55
2022/08/01 06:16:13;;;;;;;5.27;2.77;;;17.90;99.90;;;;;;5115339;28;20189;-54
2022/08/01 06:18:40;;;;;;;4.10;3.03;;;17.90;99.90;;;;;;5106837;28;20259;-53
2022/08/01 06:21:06;;;;;;;3.50;2.53;;;17.90;99.90;;;;;;5112514;28;20347;-55
2022/08/01 06:23:33;;;;;;;4.47;2.60;;;17.90;99.90;;;;;;5103997;28;20688;-54
2022/08/01 06:26:00;;;;;;;6.43;2.80;;;17.80;99.90;;;;;;5101821;28;20219;-52
2022/08/01 06:28:27;;;;;;;5.53;3.10;;;17.90;99.90;;;;;;5102833;28;20731;-53
2022/08/01 06:30:55;;;;;;;8.63;3.30;;;17.80;99.90;;;;;;5106723;28;20673;-56
2022/08/01 06:33:22;;;;;;;8.90;3.43;;;17.80;99.90;;;;;;5103362;27;20197;-54
2022/08/01 06:35:49;;;;;;;6.47;2.80;;;17.80;99.90;;;;;;5100793;28;20189;-57
2022/08/01 06:38:16;;;;;;;8.70;3.10;;;17.80;99.90;;;;;;5112022;27;20228;-52
2022/08/01 06:40:43;;;;;;;7.20;2.93;;;17.80;99.90;;;;;;5109582;27;20213;-54
2022/08/01 06:43:11;;;;;;;5.17;2.90;;;17.70;99.90;;;;;;5099749;27;20265;-55
2022/08/01 06:45:38;;;;;;;7.17;2.93;;;17.70;99.90;;;;;;5111556;27;20573;-55
2022/08/01 06:48:06;;;;;;;9.70;2.93;;;17.80;99.90;;;;;;5115530;27;20460;-54
2022/08/01 06:50:35;;;;;;;4.93;3.33;;;17.80;99.90;;;;;;5113281;27;20209;-55
2022/08/01 06:53:02;;;;;;;9.40;3.83;;;17.80;99.90;;;;;;5119019;27;20189;-51
2022/08/01 06:55:29;;;;;;;6.73;4.20;;;17.90;99.90;;;;;;5108307;27;20190;-54
2022/08/01 06:57:56;;;;;;;9.53;4.70;;;17.90;99.90;;;;;;5107595;27;20217;-51
2022/08/01 07:00:24;;;;;;;10.87;4.83;;;17.90;99.90;;;;;;5101909;27;20248;-55
2022/08/01 07:02:52;;;;;;;8.40;4.60;;;17.90;99.90;;;;;;5098757;27;20204;-56
2022/08/01 07:05:20;;;;;;;9.07;4.90;;;17.90;99.90;;;;;;5108205;27;20224;-56
2022/08/01 07:07:47;;;;;;;12.83;4.60;;;17.80;99.90;;;;;;5102963;27;20229;-56
2022/08/01 07:10:14;;;;;;;10.77;4.60;;;17.80;99.90;;;;;;5106469;27;20563;-56
2022/08/01 07:12:41;;;;;;;14.20;4.60;;;17.70;99.90;;;;;;5107504;27;20283;-52
2022/08/01 07:15:10;;;;;;;8.13;4.30;;;17.60;99.90;;;;;;5097383;27;20203;-55
2022/08/01 07:17:39;;;;;;;11.27;4.97;;;17.60;99.90;;;;;;5114640;27;20208;-53
2022/08/01 07:20:07;;;;;;;9.00;5.20;;;17.60;99.90;;;;;;5117979;27;20603;-55
2022/08/01 07:22:35;;;;;;;6.83;4.60;;;17.60;99.90;;;;;;5107502;27;20185;-53
2022/08/01 07:25:03;;;;;;;17.10;4.87;;;17.70;99.90;;;;;;5113535;27;20215;-55
2022/08/01 07:27:30;;;;;;;6.73;4.13;;;17.70;99.90;;;;;;5106651;27;20269;-54
2022/08/01 07:29:57;;;;;;;9.17;4.23;;;17.70;99.90;;;;;;5115988;27;20205;-55
2022/08/01 07:32:24;;;;;;;6.57;4.37;;;17.70;99.90;;;;;;5099464;27;20731;-56
2022/08/01 07:34:51;;;;;;;13.87;4.67;;;17.70;99.90;;;;;;5118704;27;20635;-52
2022/08/01 07:37:18;;;;;;;19.27;4.10;;;17.70;99.90;;;;;;5110865;27;20417;-56
2022/08/01 07:39:47;;;;;;;14.17;4.43;;;17.80;99.90;;;;;;5105375;27;20197;-56
2022/08/01 07:42:14;;;;;;;6.43;3.60;;;17.80;99.90;;;;;;5103535;27;20637;-52
2022/08/01 07:44:41;;;;;;;11.03;4.00;;;17.70;99.90;;;;;;5103389;28;20204;-52
2022/08/01 07:47:08;;;;;;;12.53;4.33;;;17.70;99.90;;;;;;5104379;27;20223;-52
2022/08/01 07:49:35;;;;;;;9.03;3.77;;;17.80;99.90;;;;;;5105614;27;20771;-56
2022/08/01 07:52:03;;;;;;;15.07;4.10;;;17.80;99.90;;;;;;5106693;27;20609;-56
2022/08/01 07:54:30;;;;;;;11.20;3.40;;;17.80;99.90;;;;;;5107728;27;20188;-57
2022/08/01 07:56:58;;;;;;;14.50;4.50;;;17.80;99.90;;;;;;5103231;27;20670;-54
2022/08/01 07:59:25;;;;;;;11.87;3.40;;;17.80;99.90;;;;;;5100442;28;20193;-53
2022/08/01 08:01:52;;;;;;;15.73;3.83;;;17.80;99.90;;;;;;5101774;27;20213;-53
2022/08/01 08:04:19;;;;;;;8.00;3.50;;;17.80;99.90;;;;;;5107308;27;20283;-56
2022/08/01 08:06:47;;;;;;;10.73;3.47;;;17.90;99.90;;;;;;5112518;27;20225;-52
2022/08/01 08:09:15;;;;;;;7.17;3.03;;;17.80;99.90;;;;;;5102933;27;20209;-52
2022/08/01 08:11:43;;;;;;;12.77;3.30;;;17.80;99.90;;;;;;5105653;27;20193;-52
2022/08/01 08:14:12;;;;;;;8.03;3.77;;;17.80;99.90;;;;;;5108887;27;20216;-56
2022/08/01 08:16:39;;;;;;;10.80;4.47;;;17.70;99.90;;;;;;5098291;27;20315;-56
2022/08/01 08:19:06;;;;;;;12.20;3.70;;;17.60;99.90;;;;;;5109656;27;20552;-55
2022/08/01 08:21:32;;;;;;;5.90;3.07;;;17.60;99.90;;;;;;5110190;27;20180;-55
2022/08/01 08:26:52;;;;;;;7.63;3.67;;;17.40;99.90;;;;;;5097207;27;20232;-54
2022/08/01 08:29:21;;;;;;;4.93;3.43;;;17.40;99.90;;;;;;5106644;27;20283;-53
2022/08/01 08:31:48;;;;;;;8.67;3.70;;;17.40;99.90;;;;;;5097048;27;20229;-54
2022/08/01 08:34:16;;;;;;;8.07;3.60;;;17.30;99.90;;;;;;5108444;27;20242;-57
2022/08/01 08:36:42;;;;;;;3.83;3.40;;;17.30;99.90;;;;;;5108650;27;20539;-56
2022/08/01 08:39:09;;;;;;;6.93;3.10;;;17.30;99.90;;;;;;5109553;27;20200;-56
2022/08/01 08:41:37;;;;;;;6.47;3.07;;;17.20;99.90;;;;;;5105106;27;23407;-55
2022/08/01 08:44:04;;;;;;;7.10;2.97;;;17.30;99.90;;;;;;5114430;27;20185;-56
2022/08/01 08:46:34;;;;;;;6.53;2.37;;;17.20;99.90;;;;;;5105151;27;20797;-56
2022/08/01 08:49:02;;;;;;;5.40;2.90;;;17.30;99.90;;;;;;5098916;27;20690;-55
2022/08/01 08:51:32;;;;;;;5.90;2.60;;;17.50;99.90;;;;;;5110582;27;20190;-54
2022/08/01 08:54:01;;;;;;;7.33;2.63;;;17.70;99.90;;;;;;5118954;27;20200;-53
2022/08/01 08:56:29;;;;;;;7.57;2.67;;;17.90;99.90;;;;;;5100571;27;23004;-53
2022/08/01 08:58:57;;;;;;;8.27;2.63;;;17.90;99.90;;;;;;5102911;27;20237;-56
2022/08/01 09:01:24;;;;;;;6.07;2.70;;;18.10;99.90;;;;;;5102338;27;20222;-52
2022/08/01 09:03:53;;;;;;;6.20;3.00;;;18.20;99.90;;;;;;5094673;27;20213;-50
2022/08/01 09:06:20;;;;;;;10.17;3.60;;;18.30;99.90;;;;;;5105588;27;20205;-54
2022/08/01 09:08:47;;;;;;;6.33;2.37;;;18.40;99.90;;;;;;5109423;27;20266;-57
2022/08/01 09:11:14;;;;;;;6.33;2.57;;;18.50;99.90;;;;;;5112645;27;20554;-52
2022/08/01 09:13:40;;;;;;;5.57;2.30;;;18.50;99.90;;;;;;5108580;27;20208;-56
2022/08/01 09:16:07;;;;;;;7.93;3.20;;;18.40;99.90;;;;;;5107324;27;20276;-56
2022/08/01 09:18:35;;;;;;;4.63;1.93;;;18.40;99.90;;;;;;5110387;27;20253;-54
2022/08/01 09:21:16;;;;;;;6.10;2.23;;;18.40;99.90;;;;;;5100638;27;20216;-54
2022/08/01 09:23:45;;;;;;;5.87;2.10;;;18.60;99.90;;;;;;5115489;27;20220;-53
2022/08/01 09:26:12;;;;;;;5.17;1.90;;;18.70;99.90;;;;;;5105042;27;20221;-54
2022/08/01 09:28:39;;;;;;;5.90;1.70;;;18.80;99.90;;;;;;5103601;27;20220;-56
2022/08/01 09:31:08;;;;;;;4.97;1.83;;;18.80;99.90;;;;;;5104169;27;20875;-54
2022/08/01 09:33:55;;;;;;;5.40;1.67;;;19.00;99.90;;;;;;5101267;28;20228;-54
2022/08/01 09:36:24;;;;;;;6.27;1.60;;;19.00;99.90;;;;;;5097972;27;20786;-53
2022/08/01 09:38:53;;;;;;;5.20;1.70;;;19.00;99.90;;;;;;5110504;28;20780;-52
2022/08/01 09:41:29;;;;;;;5.67;2.27;;;18.90;99.90;;;;;;5113729;28;20310;-55
2022/08/01 09:43:57;;;;;;;9.57;2.23;;;19.00;99.90;;;;;;5106334;28;20222;-57
2022/08/01 09:46:24;;;;;;;8.53;1.97;;;19.00;99.90;;;;;;5110358;28;20217;-56
2022/08/01 09:48:59;;;;;;;8.87;1.70;;;19.10;99.90;;;;;;5107500;28;20571;-55
2022/08/01 09:51:33;;;;;;;6.77;1.57;;;19.10;99.90;;;;;;5101140;28;20200;-56
2022/08/01 09:54:01;;;;;;;8.63;2.17;;;19.20;99.90;;;;;;5112881;27;20201;-55
2022/08/01 09:56:37;;;;;;;3.53;1.70;;;19.20;99.90;;;;;;5103116;28;20193;-56
2022/08/01 09:59:03;;;;;;;9.10;2.50;;;19.30;99.90;;;;;;5106662;28;20220;-57
2022/08/01 10:01:44;;;;;;;5.17;1.80;;;19.30;99.90;;;;;;5112528;28;20201;-53
2022/08/01 10:04:13;;;;;;;9.47;2.27;;;19.40;99.90;;;;;;5100512;28;20255;-54
2022/08/01 10:06:43;;;;;;;5.27;1.87;;;19.50;99.90;;;;;;5104603;28;20661;-54
2022/08/01 10:09:12;;;;;;;5.47;2.33;;;19.40;99.90;;;;;;5105370;28;20258;-54
2022/08/01 10:11:39;;;;;;;8.77;2.10;;;19.50;99.90;;;;;;5109431;27;20197;-54
2022/08/01 10:14:07;;;;;;;11.30;2.97;;;19.60;99.90;;;;;;5102008;27;20254;-55
2022/08/01 10:16:36;;;;;;;6.50;1.90;;;19.60;99.90;;;;;;5106924;27;20193;-50
2022/08/01 10:19:05;;;;;;;10.97;2.80;;;19.80;99.90;;;;;;5108174;27;20220;-55
2022/08/01 10:21:33;;;;;;;5.10;1.87;;;19.70;99.90;;;;;;5109518;27;20650;-57
2022/08/01 10:24:03;;;;;;;7.80;2.00;;;19.80;99.90;;;;;;5103000;27;20266;-56
2022/08/01 10:26:33;;;;;;;8.30;1.67;;;19.80;99.90;;;;;;5112646;27;20271;-53
2022/08/01 10:29:02;;;;;;;5.27;2.07;;;19.80;99.90;;;;;;5107186;27;20246;-55
2022/08/01 10:31:32;;;;;;;6.53;1.93;;;19.90;99.90;;;;;;5119934;27;20213;-56
2022/08/01 10:33:59;;;;;;;3.30;1.60;;;20.00;99.90;;;;;;5102836;27;20589;-56
2022/08/01 10:36:27;;;;;;;4.63;1.73;;;20.00;99.90;;;;;;5105972;27;20216;-53
2022/08/01 10:38:55;;;;;;;5.60;1.67;;;20.10;99.90;;;;;;5102322;27;20221;-55
2022/08/01 10:41:25;;;;;;;7.63;2.13;;;20.10;99.90;;;;;;5113172;27;20193;-54
2022/08/01 10:43:53;;;;;;;8.33;1.50;;;20.20;99.90;;;;;;5107158;27;20204;-56
2022/08/01 10:46:20;;;;;;;8.73;1.90;;;20.20;99.90;;;;;;5100813;27;20237;-52
2022/08/01 10:48:54;;;;;;;7.10;1.87;;;20.20;99.90;;;;;;5115801;27;20216;-55
2022/08/01 10:51:21;;;;;;;5.10;2.00;;;20.20;99.90;;;;;;5113279;27;20283;-57
2022/08/01 10:53:50;;;;;;;3.90;1.43;;;20.20;99.90;;;;;;5102357;27;20711;-57
2022/08/01 10:56:17;;;;;;;9.93;1.73;;;20.30;99.90;;;;;;5113639;27;20180;-57
2022/08/01 10:58:48;;;;;;;5.53;1.73;;;20.40;99.90;;;;;;5119128;27;20263;-55
2022/08/01 11:01:21;;;;;;;6.17;1.70;;;20.60;99.90;;;;;;5108769;27;20209;-53
2022/08/01 11:04:06;;;;;;;4.73;1.40;;;20.70;99.90;;;;;;5116071;27;20196;-56
2022/08/01 11:07:02;;;;;;;7.60;1.43;;;20.80;99.90;;;;;;5111514;27;20276;-56
2022/08/01 11:09:31;;;;;;;6.10;1.80;;;20.80;99.90;;;;;;5102295;27;20216;-54
2022/08/01 11:12:05;;;;;;;2.70;1.30;;;20.90;99.90;;;;;;5112154;27;20197;-56
2022/08/01 11:14:34;;;;;;;5.93;1.60;;;20.80;99.90;;;;;;5115969;27;20256;-56
2022/08/01 11:17:44;;;;;;;3.37;1.37;;;20.80;99.90;;;;;;5105145;27;20209;-57
2022/08/01 11:20:12;;;;;;;5.80;1.63;;;20.80;99.90;;;;;;5100665;27;20295;-53
2022/08/01 11:23:25;;;;;;;6.07;1.50;;;20.80;99.90;;;;;;5113060;27;20192;-56
2022/08/01 11:26:15;;;;;;;4.33;1.47;;;20.80;99.90;;;;;;5098473;27;20279;-53
2022/08/01 11:28:44;;;;;;;3.50;1.13;;;20.90;99.90;;;;;;5115955;27;20224;-54
2022/08/01 11:31:32;;;;;;;3.97;1.50;;;20.90;99.90;;;;;;5110944;27;20196;-53
2022/08/01 11:34:00;;;;;;;4.83;1.27;;;20.80;99.90;;;;;;5106313;27;22083;-55
2022/08/01 11:36:27;;;;;;;2.83;1.60;;;20.70;99.90;;;;;;5103792;27;20209;-55
2022/08/01 11:39:17;;;;;;;2.60;1.20;;;20.70;99.90;;;;;;5110006;27;20213;-55
2022/08/01 11:41:46;;;;;;;4.33;1.60;;;20.80;99.90;;;;;;5104969;27;20669;-56
2022/08/01 11:44:18;;;;;;;9.03;1.47;;;20.90;99.90;;;;;;5110060;27;20185;-56
2022/08/01 11:46:56;;;;;;;6.67;1.63;;;20.80;99.90;;;;;;5108027;27;20217;-54
2022/08/01 11:49:32;;;;;;;3.63;1.80;;;20.90;99.90;;;;;;5104345;27;20918;-54
2022/08/01 11:52:01;;;;;;;7.90;1.50;;;20.80;99.90;;;;;;5107734;27;20199;-54
2022/08/01 11:54:29;;;;;;;5.00;1.73;;;20.90;99.90;;;;;;5105895;27;20197;-55
2022/08/01 11:57:19;;;;;;;8.87;2.03;;;20.90;99.90;;;;;;5101224;27;20840;-57
2022/08/01 11:59:49;;;;;;;7.05;2.15;;;20.80;99.90;;;;;;5108034;27;20254;-56
2022/08/01 12:02:22;;;;;;;2.40;1.02;;;20.90;99.90;;;;;;5105835;27;20882;-57
2022/08/01 12:04:51;;;;;;;3.33;1.57;;;20.90;99.90;;;;;;5109650;27;20616;-54
2022/08/01 12:07:19;;;;;;;6.67;1.47;;;20.90;99.90;;;;;;5105559;27;20305;-56
2022/08/01 12:09:47;;;;;;;10.32;1.58;;;20.90;99.90;;;;;;5111434;27;20205;-57
2022/08/01 12:12:18;;;;;;;8.67;1.70;;;20.90;99.90;;;;;;5106741;27;20196;-56
2022/08/01 12:14:54;;;;;;;10.70;1.60;;;21.00;99.90;;;;;;5114313;27;20193;-52
2022/08/01 12:17:29;;;;;;;7.38;1.33;;;21.10;99.90;;;;;;5108704;27;20209;-50
2022/08/01 12:19:56;;;;;;;4.87;1.47;;;21.20;99.90;;;;;;5100589;27;20216;-54
2022/08/01 12:22:24;;;;;;;3.72;1.35;;;21.40;99.90;;;;;;5110878;27;20208;-56
2022/08/01 12:24:52;;;;;;;4.30;1.20;;;21.40;99.90;;;;;;5110498;27;20197;-56
2022/08/01 12:27:26;;;;;;;5.72;1.27;;;21.50;99.90;;;;;;5096420;27;20220;-56
2022/08/01 12:29:52;;;;;;;7.07;1.30;;;21.50;99.90;;;;;;5110549;27;20212;-55
2022/08/01 12:32:25;;;;;;;3.05;1.00;;;21.40;99.90;;;;;;5109388;27;20232;-54
2022/08/01 12:34:53;;;;;;;3.30;1.37;;;21.40;99.90;;;;;;5087250;27;20192;-55
2022/08/01 12:37:20;;;;;;;4.00;1.45;;;21.40;99.90;;;;;;5115809;27;20724;-55
2022/08/01 12:39:48;;;;;;;2.63;1.25;;;21.40;99.90;;;;;;5107854;27;20213;-56
2022/08/01 12:42:15;;;;;;;4.77;1.10;;;21.30;99.80;;;;;;5096482;27;20205;-55
2022/08/01 12:44:44;;;;;;;5.38;1.35;;;21.40;99.70;;;;;;5109475;27;20202;-55
2022/08/01 12:47:11;;;;;;;5.43;1.50;;;21.50;99.60;;;;;;5107379;27;20228;-53
2022/08/01 12:49:42;;;;;;;6.45;1.92;;;21.50;98.60;;;;;;5105635;27;20197;-56
2022/08/01 12:52:09;;;;;;;3.97;1.40;;;21.40;98.50;;;;;;5104435;27;20681;-56
2022/08/01 12:55:17;;;;;;;3.63;1.20;;;21.40;98.40;;;;;;5103910;27;20208;-57
2022/08/01 12:57:49;;;;;;;4.78;0.90;;;21.40;97.60;;;;;;5084301;27;20318;-57
2022/08/01 13:00:19;;;;;;;2.58;0.98;;;21.50;97.20;;;;;;5115022;27;20194;-55